Time;durP1;ratioP1;P1;durP2;ratioP2;P2;SDS_P1;SDS_P2;PMS_P1;PMS_P2;Temp;Humidity;BMP_temperature;BMP_pressure;BME280_temperature;BME280_humidity;BME280_pressure;Samples;Min_cycle;Max_cycle;Signal;HPM_P1;HPM_P2
2021/07/01 00:01:24;;;;;;;1.40;0.67;;;;;;;;;;5111739;27;20795;-76
2021/07/01 00:04:01;;;;;;;2.07;0.70;;;;;;;;;;5111909;27;20864;-77
2021/07/01 00:06:37;;;;;;;0.80;0.63;;;;;;;;;;5111300;27;20819;-76
2021/07/01 00:09:15;;;;;;;3.23;0.60;;;;;;;;;;5092498;27;20856;-76
2021/07/01 00:11:59;;;;;;;2.23;0.60;;;;;;;;;;5111901;27;20804;-76
2021/07/01 00:14:37;;;;;;;0.90;0.57;;;;;;;;;;5112025;27;20864;-76
2021/07/01 00:17:13;;;;;;;0.80;0.70;;;;;;;;;;5108818;27;20808;-75
2021/07/01 00:19:50;;;;;;;0.70;0.60;;;;;;;;;;5070902;28;20841;-76
2021/07/01 00:22:27;;;;;;;0.57;0.50;;;;;;;;;;5111475;27;20831;-76
2021/07/01 00:25:06;;;;;;;2.00;0.50;;;;;;;;;;5111903;27;20841;-76
2021/07/01 00:27:46;;;;;;;2.03;0.60;;;;;;;;;;5070520;28;20826;-76
2021/07/01 00:30:23;;;;;;;2.20;0.50;;;;;;;;;;5070850;28;21454;-76
2021/07/01 00:32:59;;;;;;;0.60;0.60;;;;;;;;;;5111014;27;20869;-76
2021/07/01 00:35:36;;;;;;;0.90;0.50;;;;;;;;;;5111233;27;20819;-76
2021/07/01 00:38:13;;;;;;;1.13;0.40;;;;;;;;;;5070357;28;21420;-76
2021/07/01 00:40:49;;;;;;;0.50;0.50;;;;;;;;;;5111416;27;20860;-76
2021/07/01 00:43:26;;;;;;;0.97;0.50;;;;;;;;;;5124063;27;20805;-76
2021/07/01 00:46:03;;;;;;;0.63;0.43;;;;;;;;;;5070575;28;21416;-76
2021/07/01 00:48:39;;;;;;;0.50;0.50;;;;;;;;;;5054830;28;20833;-76
2021/07/01 00:51:17;;;;;;;2.77;0.50;;;;;;;;;;5071279;28;20795;-76
2021/07/01 00:53:54;;;;;;;1.10;0.70;;;;;;;;;;5111897;27;20796;-76
2021/07/01 00:56:37;;;;;;;0.60;0.50;;;;;;;;;;5131855;27;20848;-76
2021/07/01 00:59:14;;;;;;;1.77;0.70;;;;;;;;;;5071300;28;20819;-76
2021/07/01 01:01:50;;;;;;;0.70;0.70;;;;;;;;;;5111604;27;20876;-76
2021/07/01 01:04:27;;;;;;;2.00;0.80;;;;;;;;;;5127277;27;20819;-76
2021/07/01 01:07:04;;;;;;;0.63;0.53;;;;;;;;;;5111765;27;21236;-76
2021/07/01 01:09:40;;;;;;;1.00;0.67;;;;;;;;;;5111449;27;20876;-76
2021/07/01 01:12:17;;;;;;;2.63;0.70;;;;;;;;;;5071339;28;20740;-76
2021/07/01 01:14:56;;;;;;;1.57;0.57;;;;;;;;;;5092695;27;20874;-75
2021/07/01 01:17:33;;;;;;;4.67;0.80;;;;;;;;;;5105315;27;20859;-76
2021/07/01 01:20:11;;;;;;;0.60;0.60;;;;;;;;;;5111332;27;21416;-76
2021/07/01 01:22:51;;;;;;;0.70;0.63;;;;;;;;;;5112167;27;20821;-76
2021/07/01 01:25:28;;;;;;;1.57;0.80;;;;;;;;;;5111885;27;21167;-76
2021/07/01 01:28:04;;;;;;;1.10;0.70;;;;;;;;;;5111046;27;20769;-76
2021/07/01 01:30:42;;;;;;;2.03;0.80;;;;;;;;;;5110953;27;20835;-75
2021/07/01 01:33:20;;;;;;;2.37;0.77;;;;;;;;;;5113625;27;20803;-75
2021/07/01 01:35:58;;;;;;;1.00;0.70;;;;;;;;;;5113977;27;20849;-75
2021/07/01 01:38:34;;;;;;;2.53;0.73;;;;;;;;;;5112088;27;20750;-75
2021/07/01 01:41:31;;;;;;;4.07;0.90;;;;;;;;;;5070623;28;21346;-76
2021/07/01 01:44:09;;;;;;;0.60;0.60;;;;;;;;;;5111677;27;20935;-76
2021/07/01 01:46:46;;;;;;;0.73;0.60;;;;;;;;;;5111610;27;20865;-76
2021/07/01 01:49:23;;;;;;;1.13;1.03;;;;;;;;;;5027995;28;20806;-76
2021/07/01 01:52:01;;;;;;;1.67;0.83;;;;;;;;;;5066725;27;20811;-75
2021/07/01 01:54:40;;;;;;;1.63;0.70;;;;;;;;;;5071109;28;20791;-76
2021/07/01 01:57:21;;;;;;;0.83;0.77;;;;;;;;;;5108117;27;20832;-76
2021/07/01 02:00:22;;;;;;;5.47;1.00;;;;;;;;;;5111762;27;21206;-76
2021/07/01 02:03:07;;;;;;;1.80;0.70;;;;;;;;;;5111175;27;20734;-76
2021/07/01 02:06:08;;;;;;;0.77;0.77;;;;;;;;;;5070783;28;20779;-76
2021/07/01 02:08:44;;;;;;;1.37;0.97;;;;;;;;;;5008209;28;20793;-76
2021/07/01 02:11:23;;;;;;;1.30;0.90;;;;;;;;;;5111154;27;21399;-76
2021/07/01 02:14:00;;;;;;;4.33;1.20;;;;;;;;;;5111914;27;20812;-76
2021/07/01 02:17:03;;;;;;;2.80;1.00;;;;;;;;;;5111423;27;20753;-76
2021/07/01 02:19:40;;;;;;;3.73;1.63;;;;;;;;;;5111025;27;20838;-76
2021/07/01 02:22:18;;;;;;;1.40;1.00;;;;;;;;;;5111034;27;20784;-76
2021/07/01 02:24:55;;;;;;;3.17;1.27;;;;;;;;;;5070610;28;20753;-76
2021/07/01 02:27:33;;;;;;;3.57;1.20;;;;;;;;;;5106117;27;20823;-76
2021/07/01 02:30:14;;;;;;;4.90;1.20;;;;;;;;;;5071378;28;20791;-76
2021/07/01 02:32:52;;;;;;;1.50;1.00;;;;;;;;;;5110741;27;21226;-76
2021/07/01 02:35:29;;;;;;;1.20;1.10;;;;;;;;;;5071276;28;20753;-76
2021/07/01 02:38:25;;;;;;;3.53;1.20;;;;;;;;;;5070757;28;20791;-75
2021/07/01 02:41:11;;;;;;;3.60;1.03;;;;;;;;;;5111861;27;20830;-75
2021/07/01 02:43:52;;;;;;;1.40;1.30;;;;;;;;;;5111953;27;20772;-76
2021/07/01 02:46:48;;;;;;;1.70;1.10;;;;;;;;;;5051958;28;20813;-76
2021/07/01 02:49:33;;;;;;;1.13;1.03;;;;;;;;;;5110994;27;21172;-76
2021/07/01 02:52:22;;;;;;;1.30;1.20;;;;;;;;;;5111514;27;20873;-76
2021/07/01 02:54:59;;;;;;;1.30;1.10;;;;;;;;;;5111919;27;20756;-76
2021/07/01 02:57:38;;;;;;;3.57;1.00;;;;;;;;;;5111218;27;20800;-76
2021/07/01 03:00:19;;;;;;;3.23;1.10;;;;;;;;;;5110926;27;20758;-76
2021/07/01 03:03:03;;;;;;;1.93;1.20;;;;;;;;;;5110983;27;20780;-75
2021/07/01 03:06:10;;;;;;;1.00;0.90;;;;;;;;;;5111872;27;21160;-76
2021/07/01 03:08:47;;;;;;;2.40;1.10;;;;;;;;;;5054948;28;20778;-76
2021/07/01 03:11:26;;;;;;;2.40;1.10;;;;;;;;;;5111046;27;20765;-76
2021/07/01 03:14:06;;;;;;;1.10;0.90;;;;;;;;;;5110886;27;21203;-76
2021/07/01 03:16:43;;;;;;;1.00;0.80;;;;;;;;;;5111629;27;20730;-75
2021/07/01 03:19:19;;;;;;;1.50;1.00;;;;;;;;;;5071228;28;20807;-76
2021/07/01 03:22:15;;;;;;;1.10;1.00;;;;;;;;;;5110819;27;20776;-76
2021/07/01 03:24:52;;;;;;;1.20;1.00;;;;;;;;;;5071063;28;21117;-76
2021/07/01 03:27:29;;;;;;;1.43;1.20;;;;;;;;;;5131722;27;20771;-76
2021/07/01 03:30:06;;;;;;;1.00;0.90;;;;;;;;;;5071280;28;20745;-75
2021/07/01 03:32:44;;;;;;;1.83;1.10;;;;;;;;;;5110864;27;20775;-76
2021/07/01 03:35:22;;;;;;;3.03;1.07;;;;;;;;;;5071313;28;20749;-76
2021/07/01 03:38:37;;;;;;;1.20;1.10;;;;;;;;;;5071210;28;20838;-76
2021/07/01 03:41:25;;;;;;;1.80;1.10;;;;;;;;;;5111311;27;21202;-75
2021/07/01 03:44:04;;;;;;;2.70;1.20;;;;;;;;;;5111804;27;20738;-75
2021/07/01 03:46:41;;;;;;;1.13;1.00;;;;;;;;;;5111525;27;20761;-76
2021/07/01 03:49:17;;;;;;;2.10;1.23;;;;;;;;;;5111784;27;20827;-76
2021/07/01 03:52:07;;;;;;;3.10;1.30;;;;;;;;;;5111987;27;20749;-76
2021/07/01 03:54:48;;;;;;;2.33;1.20;;;;;;;;;;5110970;27;20836;-76
2021/07/01 03:57:25;;;;;;;2.23;1.20;;;;;;;;;;5066929;28;21165;-76
2021/07/01 04:00:05;;;;;;;2.03;1.60;;;;;;;;;;5110862;27;21148;-76
2021/07/01 04:02:59;;;;;;;3.70;1.30;;;;;;;;;;5111261;27;20822;-76
2021/07/01 04:05:43;;;;;;;4.63;1.20;;;;;;;;;;5111970;27;20854;-75
2021/07/01 04:08:20;;;;;;;3.80;1.20;;;;;;;;;;5098652;27;20779;-75
2021/07/01 04:11:00;;;;;;;3.43;1.10;;;;;;;;;;5111863;27;20807;-75
2021/07/01 04:13:36;;;;;;;1.27;1.03;;;;;;;;;;5024216;22;20833;-75
2021/07/01 04:16:32;;;;;;;2.13;1.23;;;;;;;;;;5110971;27;20811;-74
2021/07/01 04:19:28;;;;;;;1.40;1.17;;;;;;;;;;5111484;27;20792;-75
2021/07/01 04:22:26;;;;;;;1.17;1.00;;;;;;;;;;5111457;27;20761;-74
2021/07/01 04:25:21;;;;;;;1.20;0.80;;;;;;;;;;5111019;27;20795;-74
2021/07/01 04:28:00;;;;;;;1.43;0.90;;;;;;;;;;5111088;27;20824;-73
2021/07/01 04:30:38;;;;;;;2.13;1.17;;;;;;;;;;5132206;27;20748;-76
2021/07/01 04:33:35;;;;;;;1.10;1.00;;;;;;;;;;5111445;27;21210;-75
2021/07/01 04:36:12;;;;;;;4.07;1.20;;;;;;;;;;5111433;27;20764;-74
2021/07/01 04:38:48;;;;;;;1.20;1.00;;;;;;;;;;5071250;28;20769;-74
2021/07/01 04:41:30;;;;;;;1.30;1.10;;;;;;;;;;5102847;27;20773;-75
2021/07/01 04:44:08;;;;;;;1.23;1.13;;;;;;;;;;5111101;27;20754;-74
2021/07/01 04:46:46;;;;;;;2.77;0.70;;;;;;;;;;5110466;27;21415;-75
2021/07/01 04:49:23;;;;;;;1.90;1.33;;;;;;;;;;5090778;27;20778;-75
2021/07/01 04:52:23;;;;;;;2.17;1.10;;;;;;;;;;5007272;28;20834;-74
2021/07/01 04:55:19;;;;;;;3.90;1.10;;;;;;;;;;5008043;28;20759;-74
2021/07/01 04:58:15;;;;;;;2.93;1.27;;;;;;;;;;5131877;27;20784;-75
2021/07/01 05:01:00;;;;;;;4.27;3.43;;;;;;;;;;5111309;27;21452;-74
2021/07/01 05:03:55;;;;;;;1.83;1.20;;;;;;;;;;5111058;27;21267;-74
2021/07/01 05:06:32;;;;;;;1.30;1.00;;;;;;;;;;5111876;27;20853;-74
2021/07/01 05:09:10;;;;;;;2.63;0.97;;;;;;;;;;5061020;28;20778;-75
2021/07/01 05:11:48;;;;;;;1.00;0.93;;;;;;;;;;5131623;27;20759;-74
2021/07/01 05:14:25;;;;;;;2.80;1.20;;;;;;;;;;5117254;27;20839;-74
2021/07/01 05:17:02;;;;;;;1.83;1.20;;;;;;;;;;5110318;27;20885;-74
2021/07/01 05:19:38;;;;;;;1.20;1.10;;;;;;;;;;5131347;27;20824;-75
2021/07/01 05:22:18;;;;;;;2.27;1.40;;;;;;;;;;5068905;28;21351;-75
2021/07/01 05:25:05;;;;;;;1.80;1.20;;;;;;;;;;5110263;27;20824;-74
2021/07/01 05:28:09;;;;;;;1.13;0.90;;;;;;;;;;5132314;27;21271;-74
2021/07/01 05:31:06;;;;;;;1.87;1.10;;;;;;;;;;5109137;27;20799;-74
2021/07/01 05:34:03;;;;;;;1.10;1.00;;;;;;;;;;5110361;27;20842;-74
2021/07/01 05:36:40;;;;;;;1.17;1.03;;;;;;;;;;5071240;28;20798;-74
2021/07/01 05:39:21;;;;;;;1.77;1.00;;;;;;;;;;5110650;27;21307;-73
2021/07/01 05:41:58;;;;;;;2.07;1.07;;;;;;;;;;5071185;28;21436;-74
2021/07/01 05:44:34;;;;;;;1.73;1.00;;;;;;;;;;5110782;27;20869;-74
2021/07/01 05:47:12;;;;;;;1.70;1.33;;;;;;;;;;5110505;27;20802;-74
2021/07/01 05:49:49;;;;;;;1.63;1.40;;;;;;;;;;5111710;27;20812;-74
2021/07/01 05:52:28;;;;;;;2.40;1.10;;;;;;;;;;5111267;27;20829;-74
2021/07/01 05:55:06;;;;;;;1.80;1.00;;;;;;;;;;5111339;27;20813;-75
2021/07/01 05:57:42;;;;;;;1.87;1.30;;;;;;;;;;5103893;27;20874;-75
2021/07/01 06:00:19;;;;;;;1.40;1.00;;;;;;;;;;5068184;28;20811;-74
2021/07/01 06:02:56;;;;;;;1.33;1.23;;;;;;;;;;5111127;27;21385;-74
2021/07/01 06:05:36;;;;;;;1.67;1.30;;;;;;;;;;5110700;27;20811;-74
2021/07/01 06:08:43;;;;;;;1.10;1.00;;;;;;;;;;5105175;27;20832;-75
2021/07/01 06:11:20;;;;;;;2.80;1.40;;;;;;;;;;5111822;27;20826;-74
2021/07/01 06:13:57;;;;;;;1.40;1.30;;;;;;;;;;5110936;27;20838;-75
2021/07/01 06:16:35;;;;;;;1.80;1.20;;;;;;;;;;5070832;28;20814;-74
2021/07/01 06:19:14;;;;;;;2.53;1.13;;;;;;;;;;5110719;27;20900;-75
2021/07/01 06:21:52;;;;;;;2.00;1.30;;;;;;;;;;5111882;27;21377;-74
2021/07/01 06:24:31;;;;;;;3.30;1.37;;;;;;;;;;5132261;27;21379;-74
2021/07/01 06:27:09;;;;;;;2.20;1.37;;;;;;;;;;5109994;27;20842;-75
2021/07/01 06:29:47;;;;;;;3.20;1.30;;;;;;;;;;5070486;28;21275;-74
2021/07/01 06:32:24;;;;;;;1.40;1.07;;;;;;;;;;5111118;27;20845;-74
2021/07/01 06:35:02;;;;;;;1.60;1.40;;;;;;;;;;5071272;28;20868;-74
2021/07/01 06:37:40;;;;;;;1.37;1.27;;;;;;;;;;5108814;27;20904;-74
2021/07/01 06:40:35;;;;;;;1.70;1.40;;;;;;;;;;5131872;27;20895;-74
2021/07/01 06:43:31;;;;;;;3.63;1.10;;;;;;;;;;5111847;27;21248;-74
2021/07/01 06:46:30;;;;;;;4.97;1.10;;;;;;;;;;5111222;27;20823;-74
2021/07/01 06:49:30;;;;;;;1.90;1.13;;;;;;;;;;5070689;28;20818;-75
2021/07/01 06:52:46;;;;;;;2.07;1.10;;;;;;;;;;5111854;27;20788;-74
2021/07/01 06:55:51;;;;;;;2.50;1.07;;;;;;;;;;5111558;27;20796;-74
2021/07/01 06:58:36;;;;;;;1.50;1.07;;;;;;;;;;5131613;27;20833;-75
2021/07/01 07:01:12;;;;;;;1.73;1.30;;;;;;;;;;5111313;27;20827;-75
2021/07/01 07:03:49;;;;;;;1.73;1.00;;;;;;;;;;5111888;27;21236;-74
2021/07/01 07:06:26;;;;;;;1.20;1.00;;;;;;;;;;5111587;27;20861;-74
2021/07/01 07:09:04;;;;;;;2.67;1.10;;;;;;;;;;5097887;27;20855;-74
2021/07/01 07:11:43;;;;;;;3.27;1.10;;;;;;;;;;5111641;27;20808;-75
2021/07/01 07:14:20;;;;;;;1.33;1.23;;;;;;;;;;5111569;27;20834;-75
2021/07/01 07:16:58;;;;;;;1.40;1.23;;;;;;;;;;5070525;28;20833;-74
2021/07/01 07:19:37;;;;;;;1.00;0.90;;;;;;;;;;5110989;27;20880;-74
2021/07/01 07:22:17;;;;;;;1.53;1.00;;;;;;;;;;5132330;27;21232;-75
2021/07/01 07:25:00;;;;;;;1.13;1.03;;;;;;;;;;5111840;27;20788;-74
2021/07/01 07:27:41;;;;;;;1.10;1.00;;;;;;;;;;5105274;27;20879;-74
2021/07/01 07:30:17;;;;;;;2.37;0.93;;;;;;;;;;5110971;27;20866;-75
2021/07/01 07:32:55;;;;;;;1.87;1.10;;;;;;;;;;5111907;27;20807;-74
2021/07/01 07:35:33;;;;;;;1.20;1.10;;;;;;;;;;5111588;27;20833;-75
2021/07/01 07:38:10;;;;;;;1.00;0.90;;;;;;;;;;5111790;27;20835;-74
2021/07/01 07:40:52;;;;;;;2.50;1.00;;;;;;;;;;5070042;28;20815;-76
2021/07/01 07:43:28;;;;;;;3.10;0.90;;;;;;;;;;5111937;27;21248;-75
2021/07/01 07:46:05;;;;;;;3.37;0.97;;;;;;;;;;5111858;27;20861;-75
2021/07/01 07:48:42;;;;;;;2.20;1.33;;;;;;;;;;5111788;27;20849;-75
2021/07/01 07:51:22;;;;;;;2.23;1.00;;;;;;;;;;5110876;27;20815;-75
2021/07/01 07:54:06;;;;;;;2.10;1.10;;;;;;;;;;5111657;27;20865;-75
2021/07/01 07:56:47;;;;;;;0.90;0.90;;;;;;;;;;5131503;27;20856;-75
2021/07/01 07:59:28;;;;;;;1.93;0.90;;;;;;;;;;5051374;28;20860;-74
2021/07/01 08:02:06;;;;;;;1.17;1.00;;;;;;;;;;5070950;28;20818;-75
2021/07/01 08:04:44;;;;;;;1.87;0.97;;;;;;;;;;5111666;27;20845;-75
2021/07/01 08:07:22;;;;;;;1.37;0.90;;;;;;;;;;5111688;27;20881;-75
2021/07/01 08:09:59;;;;;;;1.43;0.70;;;;;;;;;;5110093;27;21474;-75
2021/07/01 08:12:42;;;;;;;2.03;0.80;;;;;;;;;;5123582;27;21456;-75
2021/07/01 08:15:20;;;;;;;1.73;0.93;;;;;;;;;;5111127;27;20853;-75
2021/07/01 08:18:00;;;;;;;1.80;1.00;;;;;;;;;;5111107;27;20857;-75
2021/07/01 08:20:36;;;;;;;1.00;0.90;;;;;;;;;;5071003;28;20837;-74
2021/07/01 08:23:13;;;;;;;0.80;0.80;;;;;;;;;;5111898;27;20796;-75
2021/07/01 08:25:54;;;;;;;0.90;0.77;;;;;;;;;;5111470;27;20873;-74
2021/07/01 08:28:31;;;;;;;1.10;1.00;;;;;;;;;;5111817;27;20808;-75
2021/07/01 08:31:17;;;;;;;3.67;1.00;;;;;;;;;;5110701;27;20880;-75
2021/07/01 08:33:57;;;;;;;1.27;0.80;;;;;;;;;;5110973;27;20803;-75
2021/07/01 08:36:36;;;;;;;0.83;0.83;;;;;;;;;;5132386;27;20812;-75
2021/07/01 08:39:13;;;;;;;0.70;0.67;;;;;;;;;;5110828;27;20869;-75
2021/07/01 08:41:55;;;;;;;1.07;0.97;;;;;;;;;;5131814;27;20802;-74
2021/07/01 08:44:44;;;;;;;1.17;0.80;;;;;;;;;;5111658;27;20865;-75
2021/07/01 08:47:21;;;;;;;0.80;0.80;;;;;;;;;;5111324;27;20835;-75
2021/07/01 08:50:03;;;;;;;1.67;0.97;;;;;;;;;;5111860;27;20857;-74
2021/07/01 08:53:01;;;;;;;0.70;0.70;;;;;;;;;;5070543;28;20865;-75
2021/07/01 08:55:40;;;;;;;0.97;0.70;;;;;;;;;;5070519;28;21412;-74
2021/07/01 08:58:22;;;;;;;0.67;0.67;;;;;;;;;;5070770;28;20842;-74
2021/07/01 09:01:01;;;;;;;1.20;0.70;;;;;;;;;;5110904;27;20846;-75
2021/07/01 09:03:43;;;;;;;0.60;0.60;;;;;;;;;;5110965;27;20849;-75
2021/07/01 09:06:27;;;;;;;0.83;0.60;;;;;;;;;;5131474;27;20814;-75
2021/07/01 09:09:07;;;;;;;0.70;0.70;;;;;;;;;;5111101;27;21246;-75
2021/07/01 09:11:46;;;;;;;1.80;0.70;;;;;;;;;;5111264;27;20796;-75
2021/07/01 09:14:25;;;;;;;0.90;0.80;;;;;;;;;;5111481;27;20823;-75
2021/07/01 09:17:08;;;;;;;5.83;0.70;;;;;;;;;;5111423;27;20866;-75
2021/07/01 09:19:46;;;;;;;0.83;0.80;;;;;;;;;;5111411;27;20823;-75
2021/07/01 09:22:25;;;;;;;0.70;0.60;;;;;;;;;;5111566;27;20861;-75
2021/07/01 09:25:03;;;;;;;0.80;0.80;;;;;;;;;;5111444;27;20865;-75
2021/07/01 09:27:43;;;;;;;0.83;0.80;;;;;;;;;;5071166;28;21198;-75
2021/07/01 09:30:25;;;;;;;0.90;0.90;;;;;;;;;;5111170;27;20839;-75
2021/07/01 09:33:06;;;;;;;0.70;0.70;;;;;;;;;;5110909;27;21478;-75
2021/07/01 09:35:44;;;;;;;1.00;0.70;;;;;;;;;;5111262;27;21299;-75
2021/07/01 09:38:21;;;;;;;0.70;0.70;;;;;;;;;;5071228;28;21230;-75
2021/07/01 09:40:57;;;;;;;0.80;0.60;;;;;;;;;;5111075;27;20884;-74
2021/07/01 09:43:35;;;;;;;0.60;0.50;;;;;;;;;;5111283;27;21466;-74
2021/07/01 09:46:22;;;;;;;1.43;0.80;;;;;;;;;;5111804;27;20832;-74
2021/07/01 09:49:01;;;;;;;1.00;0.80;;;;;;;;;;5111862;27;21438;-74
2021/07/01 09:51:38;;;;;;;0.90;0.90;;;;;;;;;;5071274;28;20818;-74
2021/07/01 09:54:17;;;;;;;1.63;0.87;;;;;;;;;;5110709;27;20812;-74
2021/07/01 09:56:58;;;;;;;1.03;0.90;;;;;;;;;;5070735;28;20821;-74
2021/07/01 09:59:43;;;;;;;1.13;0.83;;;;;;;;;;5111535;27;20857;-74
2021/07/01 10:02:22;;;;;;;1.57;0.80;;;;;;;;;;5070767;28;20844;-74
2021/07/01 10:04:59;;;;;;;2.00;0.90;;;;;;;;;;5111106;27;21285;-74
2021/07/01 10:07:47;;;;;;;1.20;0.80;;;;;;;;;;5111753;27;20834;-74
2021/07/01 10:10:25;;;;;;;1.10;0.97;;;;;;;;;;5069845;28;20819;-71
2021/07/01 10:13:03;;;;;;;1.27;0.80;;;;;;;;;;5159124;22;20792;-75
2021/07/01 10:15:41;;;;;;;0.90;0.70;;;;;;;;;;5089662;27;20840;-76
2021/07/01 10:18:20;;;;;;;0.73;0.60;;;;;;;;;;5110379;27;20873;-74
2021/07/01 10:21:00;;;;;;;1.67;0.77;;;;;;;;;;5110628;27;20807;-75
2021/07/01 10:23:37;;;;;;;1.90;1.03;;;;;;;;;;5110960;27;21399;-75
2021/07/01 10:26:20;;;;;;;1.53;0.70;;;;;;;;;;5110490;27;20807;-76
2021/07/01 10:29:01;;;;;;;1.10;0.70;;;;;;;;;;5093973;27;20856;-76
2021/07/01 10:31:46;;;;;;;1.30;0.80;;;;;;;;;;5110668;27;20882;-76
2021/07/01 10:34:25;;;;;;;1.20;0.90;;;;;;;;;;5111252;27;20849;-76
2021/07/01 10:37:20;;;;;;;1.17;0.80;;;;;;;;;;5110323;27;21218;-76
2021/07/01 10:39:57;;;;;;;2.83;0.70;;;;;;;;;;5070773;28;20823;-76
2021/07/01 10:42:48;;;;;;;1.17;0.90;;;;;;;;;;5110428;27;21416;-76
2021/07/01 10:45:26;;;;;;;1.00;0.80;;;;;;;;;;5110219;27;20880;-76
2021/07/01 10:48:11;;;;;;;1.43;0.80;;;;;;;;;;5086759;28;20872;-76
2021/07/01 10:50:50;;;;;;;1.00;0.70;;;;;;;;;;5117013;27;20820;-76
2021/07/01 10:53:32;;;;;;;1.17;0.90;;;;;;;;;;5111964;27;21143;-77
2021/07/01 10:56:21;;;;;;;1.10;1.00;;;;;;;;;;5111185;27;20837;-76
2021/07/01 10:58:58;;;;;;;3.20;1.10;;;;;;;;;;5070590;28;21473;-76
2021/07/01 11:01:37;;;;;;;1.30;1.20;;;;;;;;;;5111658;27;20869;-77
2021/07/01 11:04:18;;;;;;;2.53;1.10;;;;;;;;;;5127086;27;20871;-76
2021/07/01 11:07:00;;;;;;;1.70;1.27;;;;;;;;;;5111953;27;20800;-76
2021/07/01 11:09:44;;;;;;;1.73;1.40;;;;;;;;;;5111602;27;21474;-76
2021/07/01 11:12:23;;;;;;;1.43;1.20;;;;;;;;;;5111965;27;20873;-77
2021/07/01 11:15:05;;;;;;;2.83;1.80;;;;;;;;;;5071357;28;20866;-76
2021/07/01 11:17:42;;;;;;;1.90;1.50;;;;;;;;;;5111300;27;20842;-74
2021/07/01 11:20:22;;;;;;;2.40;1.50;;;;;;;;;;5127145;27;21198;-76
2021/07/01 11:22:58;;;;;;;2.33;1.73;;;;;;;;;;5071382;28;20807;-76
2021/07/01 11:25:43;;;;;;;4.23;2.00;;;;;;;;;;5070786;28;21356;-76
2021/07/01 11:28:26;;;;;;;2.17;1.80;;;;;;;;;;5140709;27;21261;-76
2021/07/01 11:31:02;;;;;;;2.37;2.10;;;;;;;;;;5111951;27;20817;-76
2021/07/01 11:33:39;;;;;;;2.27;1.60;;;;;;;;;;5111915;27;21246;-76
2021/07/01 11:36:18;;;;;;;1.97;1.73;;;;;;;;;;5112017;27;20833;-77
2021/07/01 11:39:07;;;;;;;1.77;1.60;;;;;;;;;;5075658;28;21285;-76
2021/07/01 11:41:47;;;;;;;2.23;1.60;;;;;;;;;;5111885;27;21252;-76
2021/07/01 11:44:24;;;;;;;1.87;1.73;;;;;;;;;;5111936;27;21457;-76
2021/07/01 11:47:05;;;;;;;2.03;1.73;;;;;;;;;;5111405;27;20826;-75
2021/07/01 11:49:43;;;;;;;3.13;1.70;;;;;;;;;;5111819;27;20834;-76
2021/07/01 11:52:31;;;;;;;5.80;2.27;;;;;;;;;;5008022;28;24975;-74
2021/07/01 11:55:07;;;;;;;2.97;1.77;;;;;;;;;;5113493;27;20834;-76
2021/07/01 11:57:59;;;;;;;2.43;1.70;;;;;;;;;;5051745;28;24575;-75
2021/07/01 12:00:40;;;;;;;2.10;1.83;;;;;;;;;;5071558;28;20798;-75
2021/07/01 12:03:16;;;;;;;2.40;1.80;;;;;;;;;;5071057;28;21245;-74
2021/07/01 12:05:53;;;;;;;2.53;1.93;;;;;;;;;;5071654;28;20815;-76
2021/07/01 12:08:34;;;;;;;1.93;1.70;;;;;;;;;;5111277;27;20816;-75
2021/07/01 12:11:10;;;;;;;2.90;1.50;;;;;;;;;;5111350;27;20877;-76
2021/07/01 12:13:47;;;;;;;1.83;1.60;;;;;;;;;;5111938;27;20833;-74
2021/07/01 12:16:39;;;;;;;2.93;1.70;;;;;;;;;;5071192;28;20841;-76
2021/07/01 12:19:17;;;;;;;3.53;1.70;;;;;;;;;;5132430;27;20809;-75
2021/07/01 12:21:54;;;;;;;1.93;1.83;;;;;;;;;;5111889;27;20857;-76
2021/07/01 12:24:31;;;;;;;2.50;1.73;;;;;;;;;;5111847;27;20833;-76
2021/07/01 12:27:31;;;;;;;2.17;1.47;;;;;;;;;;5111159;27;21275;-76
2021/07/01 12:30:09;;;;;;;3.07;1.60;;;;;;;;;;5111014;27;21423;-77
2021/07/01 12:32:47;;;;;;;1.60;1.50;;;;;;;;;;5067952;27;20796;-76
2021/07/01 12:35:41;;;;;;;2.13;1.73;;;;;;;;;;5111841;27;20827;-76
2021/07/01 12:38:19;;;;;;;2.93;1.53;;;;;;;;;;5070595;28;20857;-76
2021/07/01 12:40:58;;;;;;;6.00;2.20;;;;;;;;;;5128680;27;20828;-76
2021/07/01 12:43:51;;;;;;;1.97;1.70;;;;;;;;;;5092151;27;21261;-77
2021/07/01 12:46:46;;;;;;;3.53;3.20;;;;;;;;;;5106081;27;20840;-74
2021/07/01 12:49:27;;;;;;;3.23;2.00;;;;;;;;;;5071245;28;20853;-77
2021/07/01 12:52:09;;;;;;;1.83;1.43;;;;;;;;;;5071398;28;20846;-76
2021/07/01 12:54:47;;;;;;;2.00;1.80;;;;;;;;;;5071334;28;20817;-76
2021/07/01 12:57:24;;;;;;;1.90;1.50;;;;;;;;;;5110986;27;20819;-74
2021/07/01 13:00:00;;;;;;;3.77;1.80;;;;;;;;;;5111791;27;20792;-76
2021/07/01 13:02:40;;;;;;;1.63;1.40;;;;;;;;;;5080242;28;21348;-76
2021/07/01 13:05:16;;;;;;;5.50;1.20;;;;;;;;;;5124983;27;20814;-75
2021/07/01 13:07:53;;;;;;;2.60;1.20;;;;;;;;;;5069442;28;20830;-74
2021/07/01 13:10:34;;;;;;;1.83;1.63;;;;;;;;;;5107454;27;20812;-75
2021/07/01 13:13:11;;;;;;;2.43;1.30;;;;;;;;;;5107583;27;20834;-76
2021/07/01 13:15:48;;;;;;;2.27;1.83;;;;;;;;;;5107599;27;20841;-76
2021/07/01 13:18:24;;;;;;;1.73;1.47;;;;;;;;;;5107182;27;20879;-76
2021/07/01 13:21:11;;;;;;;1.43;1.20;;;;;;;;;;5118195;27;20802;-76
2021/07/01 13:23:49;;;;;;;2.53;1.50;;;;;;;;;;5067040;28;20809;-74
2021/07/01 13:26:30;;;;;;;1.40;1.30;;;;;;;;;;5107844;27;20833;-75
2021/07/01 13:29:06;;;;;;;1.67;1.57;;;;;;;;;;5120199;27;20887;-75
2021/07/01 13:31:44;;;;;;;1.50;1.40;;;;;;;;;;5107464;27;20866;-74
2021/07/01 13:34:28;;;;;;;1.50;1.40;;;;;;;;;;5128087;27;20859;-75
2021/07/01 13:37:24;;;;;;;1.37;1.27;;;;;;;;;;5077763;28;20823;-77
2021/07/01 13:40:13;;;;;;;2.77;2.07;;;;;;;;;;5073706;28;20813;-76
2021/07/01 13:42:52;;;;;;;1.47;1.27;;;;;;;;;;5083640;28;20817;-78
2021/07/01 13:45:30;;;;;;;2.73;1.57;;;;;;;;;;5107703;27;21413;-77
2021/07/01 13:48:09;;;;;;;1.33;1.23;;;;;;;;;;5107079;27;21505;-76
2021/07/01 13:50:51;;;;;;;3.77;1.80;;;;;;;;;;5063443;27;21221;-77
2021/07/01 13:53:31;;;;;;;1.90;1.60;;;;;;;;;;5107116;27;21466;-76
2021/07/01 13:56:10;;;;;;;1.97;1.43;;;;;;;;;;5107375;27;20869;-75
2021/07/01 13:58:48;;;;;;;2.43;1.70;;;;;;;;;;5066504;28;20827;-77
2021/07/01 14:01:26;;;;;;;1.97;1.73;;;;;;;;;;5066914;28;20844;-77
2021/07/01 14:04:03;;;;;;;3.30;1.70;;;;;;;;;;5107566;27;20857;-77
2021/07/01 14:06:42;;;;;;;2.00;1.80;;;;;;;;;;5107353;27;20817;-77
2021/07/01 14:09:20;;;;;;;6.60;1.60;;;;;;;;;;5107152;27;21152;-77
2021/07/01 14:11:56;;;;;;;2.43;1.50;;;;;;;;;;5066593;28;20811;-76
2021/07/01 14:14:33;;;;;;;2.47;1.57;;;;;;;;;;5066754;28;20825;-76
2021/07/01 14:17:10;;;;;;;4.00;1.70;;;;;;;;;;5107357;27;20817;-76
2021/07/01 14:19:48;;;;;;;1.47;1.37;;;;;;;;;;5107411;27;20821;-77
2021/07/01 14:22:37;;;;;;;2.80;2.00;;;;;;;;;;5107150;27;20804;-77
2021/07/01 14:25:22;;;;;;;3.50;1.50;;;;;;;;;;5107277;27;21362;-77
2021/07/01 14:28:02;;;;;;;1.97;1.70;;;;;;;;;;5107431;27;21304;-77
2021/07/01 14:30:49;;;;;;;2.00;1.83;;;;;;;;;;5107087;27;21240;-76
2021/07/01 14:33:31;;;;;;;2.37;1.70;;;;;;;;;;5107279;27;20807;-77
2021/07/01 14:36:10;;;;;;;2.13;1.93;;;;;;;;;;5066547;28;20815;-76
2021/07/01 14:38:58;;;;;;;3.17;1.90;;;;;;;;;;5107223;27;20850;-77
2021/07/01 14:41:37;;;;;;;2.13;1.93;;;;;;;;;;5107160;27;20811;-77
2021/07/01 14:44:27;;;;;;;2.20;2.00;;;;;;;;;;5107347;27;21221;-77
2021/07/01 14:47:13;;;;;;;7.27;1.97;;;;;;;;;;5066419;28;20837;-77
2021/07/01 14:49:50;;;;;;;3.20;1.80;;;;;;;;;;5066983;28;20821;-77
2021/07/01 14:52:34;;;;;;;1.83;1.53;;;;;;;;;;5068765;28;20806;-76
2021/07/01 14:55:16;;;;;;;1.73;1.63;;;;;;;;;;5111721;27;20799;-77
2021/07/01 14:58:03;;;;;;;4.03;1.80;;;;;;;;;;5112132;27;20873;-77
2021/07/01 15:00:40;;;;;;;3.93;1.77;;;;;;;;;;5071358;28;21249;-77
2021/07/01 15:03:21;;;;;;;1.60;1.50;;;;;;;;;;5112318;27;20837;-77
2021/07/01 15:06:07;;;;;;;1.90;1.47;;;;;;;;;;5111894;27;20838;-76
2021/07/01 15:08:44;;;;;;;1.30;1.20;;;;;;;;;;5070792;28;21420;-77
2021/07/01 15:11:22;;;;;;;3.30;1.30;;;;;;;;;;5111416;27;20873;-77
2021/07/01 15:14:16;;;;;;;2.10;1.50;;;;;;;;;;5111534;27;20822;-77
2021/07/01 15:17:10;;;;;;;2.87;1.20;;;;;;;;;;5107792;27;20826;-78
2021/07/01 15:19:48;;;;;;;1.40;1.00;;;;;;;;;;5120674;27;20830;-79
2021/07/01 15:22:25;;;;;;;1.60;1.10;;;;;;;;;;5117572;27;21479;-74
2021/07/01 15:25:03;;;;;;;1.57;1.00;;;;;;;;;;5076023;28;20813;-78
2021/07/01 15:27:42;;;;;;;1.40;1.13;;;;;;;;;;5114641;27;21445;-78
2021/07/01 15:30:19;;;;;;;1.20;1.10;;;;;;;;;;5086005;28;20817;-78
2021/07/01 15:32:57;;;;;;;1.57;1.07;;;;;;;;;;5110764;27;20834;-77
2021/07/01 15:35:33;;;;;;;1.43;1.00;;;;;;;;;;5111071;27;20838;-77
2021/07/01 15:38:10;;;;;;;1.77;1.00;;;;;;;;;;5108907;27;20868;-81
2021/07/01 15:40:46;;;;;;;1.80;1.20;;;;;;;;;;5071049;28;21428;-80
2021/07/01 15:43:25;;;;;;;1.47;1.37;;;;;;;;;;5111033;27;20812;-81
2021/07/01 15:46:02;;;;;;;2.63;1.00;;;;;;;;;;5153507;27;20823;-80
2021/07/01 15:48:43;;;;;;;1.87;1.57;;;;;;;;;;5112626;27;20888;-80
2021/07/01 15:51:20;;;;;;;1.57;1.37;;;;;;;;;;5071676;28;21209;-80
2021/07/01 15:54:00;;;;;;;1.97;1.27;;;;;;;;;;5110069;27;20816;-80
2021/07/01 15:56:48;;;;;;;2.30;1.20;;;;;;;;;;5109955;27;20857;-80
2021/07/01 15:59:25;;;;;;;1.40;1.10;;;;;;;;;;5089118;27;20878;-78
2021/07/01 16:02:02;;;;;;;1.53;1.17;;;;;;;;;;5068755;28;20853;-78
2021/07/01 16:04:43;;;;;;;1.30;1.13;;;;;;;;;;5108952;27;20838;-77
2021/07/01 16:07:21;;;;;;;1.83;1.37;;;;;;;;;;5064918;28;21297;-77